sensor_id;sensor_type;location;lat;lon;timestamp;temperature;humidity
21811;DHT22;11067;48.788;9.208;2023-07-31T00:00:37;17.10;99.90
21811;DHT22;11067;48.788;9.208;2023-07-31T00:03:03;16.90;99.90
21811;DHT22;11067;48.788;9.208;2023-07-31T00:05:28;16.90;99.90
21811;DHT22;11067;48.788;9.208;2023-07-31T00:07:54;16.90;99.90
21811;DHT22;11067;48.788;9.208;2023-07-31T00:10:20;16.90;99.90
21811;DHT22;11067;48.788;9.208;2023-07-31T00:12:46;16.80;99.90
21811;DHT22;11067;48.788;9.208;2023-07-31T00:15:13;16.80;99.90
21811;DHT22;11067;48.788;9.208;2023-07-31T00:17:39;16.80;99.90
21811;DHT22;11067;48.788;9.208;2023-07-31T00:20:05;16.80;99.90
21811;DHT22;11067;48.788;9.208;2023-07-31T00:22:31;16.80;99.90
21811;DHT22;11067;48.788;9.208;2023-07-31T00:24:56;16.80;99.90
21811;DHT22;11067;48.788;9.208;2023-07-31T00:27:22;16.80;99.90
21811;DHT22;11067;48.788;9.208;2023-07-31T00:29:48;16.80;99.90
21811;DHT22;11067;48.788;9.208;2023-07-31T00:32:13;16.80;99.90
21811;DHT22;11067;48.788;9.208;2023-07-31T00:34:39;16.80;99.90
21811;DHT22;11067;48.788;9.208;2023-07-31T00:37:05;16.70;99.90
21811;DHT22;11067;48.788;9.208;2023-07-31T00:39:30;16.60;99.90
21811;DHT22;11067;48.788;9.208;2023-07-31T00:41:56;16.70;99.90
21811;DHT22;11067;48.788;9.208;2023-07-31T00:44:22;16.70;99.90
21811;DHT22;11067;48.788;9.208;2023-07-31T00:46:48;16.60;99.90
21811;DHT22;11067;48.788;9.208;2023-07-31T00:49:13;16.60;99.90
21811;DHT22;11067;48.788;9.208;2023-07-31T00:51:39;16.60;99.90
21811;DHT22;11067;48.788;9.208;2023-07-31T00:54:06;16.60;99.90
21811;DHT22;11067;48.788;9.208;2023-07-31T00:56:32;16.60;99.90
21811;DHT22;11067;48.788;9.208;2023-07-31T00:58:58;16.50;99.90
21811;DHT22;11067;48.788;9.208;2023-07-31T01:01:23;16.50;99.90
21811;DHT22;11067;48.788;9.208;2023-07-31T01:03:50;16.50;99.90
21811;DHT22;11067;48.788;9.208;2023-07-31T01:06:48;16.60;99.90
21811;DHT22;11067;48.788;9.208;2023-07-31T01:09:32;16.50;99.90
21811;DHT22;11067;48.788;9.208;2023-07-31T01:12:03;16.40;99.90
21811;DHT22;11067;48.788;9.208;2023-07-31T01:14:29;16.40;99.90
21811;DHT22;11067;48.788;9.208;2023-07-31T01:16:55;16.30;99.90
21811;DHT22;11067;48.788;9.208;2023-07-31T01:19:23;16.30;99.90
21811;DHT22;11067;48.788;9.208;2023-07-31T01:24:40;16.30;99.90
21811;DHT22;11067;48.788;9.208;2023-07-31T01:27:19;16.20;99.90
21811;DHT22;11067;48.788;9.208;2023-07-31T01:29:53;16.20;99.90
21811;DHT22;11067;48.788;9.208;2023-07-31T01:32:22;16.20;99.90
21811;DHT22;11067;48.788;9.208;2023-07-31T01:34:51;16.30;99.90
21811;DHT22;11067;48.788;9.208;2023-07-31T01:37:17;16.20;99.90
21811;DHT22;11067;48.788;9.208;2023-07-31T01:39:43;16.20;99.90
21811;DHT22;11067;48.788;9.208;2023-07-31T01:42:08;16.20;99.90
21811;DHT22;11067;48.788;9.208;2023-07-31T01:44:34;16.10;99.90
21811;DHT22;11067;48.788;9.208;2023-07-31T01:47:00;16.10;99.90
21811;DHT22;11067;48.788;9.208;2023-07-31T01:49:25;16.20;99.90
21811;DHT22;11067;48.788;9.208;2023-07-31T01:51:51;16.20;99.90
21811;DHT22;11067;48.788;9.208;2023-07-31T01:54:16;16.20;99.90
21811;DHT22;11067;48.788;9.208;2023-07-31T01:56:42;16.30;99.90
21811;DHT22;11067;48.788;9.208;2023-07-31T01:59:07;16.30;99.90
21811;DHT22;11067;48.788;9.208;2023-07-31T02:01:33;16.40;99.90
21811;DHT22;11067;48.788;9.208;2023-07-31T02:03:59;16.30;99.90
21811;DHT22;11067;48.788;9.208;2023-07-31T02:06:26;16.40;99.90
21811;DHT22;11067;48.788;9.208;2023-07-31T02:08:51;16.30;99.90
21811;DHT22;11067;48.788;9.208;2023-07-31T02:11:17;16.30;99.90
21811;DHT22;11067;48.788;9.208;2023-07-31T02:13:43;16.30;99.90
21811;DHT22;11067;48.788;9.208;2023-07-31T02:16:08;16.30;99.90
21811;DHT22;11067;48.788;9.208;2023-07-31T02:18:34;16.20;99.90
21811;DHT22;11067;48.788;9.208;2023-07-31T02:20:59;16.20;99.90
21811;DHT22;11067;48.788;9.208;2023-07-31T02:23:25;16.20;99.90
21811;DHT22;11067;48.788;9.208;2023-07-31T02:25:50;16.30;99.90
21811;DHT22;11067;48.788;9.208;2023-07-31T02:28:16;16.30;99.90
21811;DHT22;11067;48.788;9.208;2023-07-31T02:30:44;16.30;99.90
21811;DHT22;11067;48.788;9.208;2023-07-31T02:33:11;16.40;99.90
21811;DHT22;11067;48.788;9.208;2023-07-31T02:35:37;16.40;99.90
21811;DHT22;11067;48.788;9.208;2023-07-31T02:38:02;16.30;99.90
21811;DHT22;11067;48.788;9.208;2023-07-31T02:40:28;16.30;99.90
21811;DHT22;11067;48.788;9.208;2023-07-31T02:42:53;16.20;99.90
21811;DHT22;11067;48.788;9.208;2023-07-31T02:45:19;16.20;99.90
21811;DHT22;11067;48.788;9.208;2023-07-31T02:47:44;16.20;99.90
21811;DHT22;11067;48.788;9.208;2023-07-31T02:50:10;16.20;99.90
21811;DHT22;11067;48.788;9.208;2023-07-31T02:52:35;16.20;99.90
21811;DHT22;11067;48.788;9.208;2023-07-31T02:55:01;16.20;99.90
21811;DHT22;11067;48.788;9.208;2023-07-31T02:57:26;16.30;99.90
21811;DHT22;11067;48.788;9.208;2023-07-31T02:59:52;16.30;99.90
21811;DHT22;11067;48.788;9.208;2023-07-31T03:02:18;16.30;99.90
21811;DHT22;11067;48.788;9.208;2023-07-31T03:04:43;16.30;99.90
21811;DHT22;11067;48.788;9.208;2023-07-31T03:07:09;16.30;99.90
21811;DHT22;11067;48.788;9.208;2023-07-31T03:09:34;16.30;99.90
21811;DHT22;11067;48.788;9.208;2023-07-31T03:12:00;16.30;99.90
21811;DHT22;11067;48.788;9.208;2023-07-31T03:14:25;16.20;99.90
21811;DHT22;11067;48.788;9.208;2023-07-31T03:16:54;16.20;99.90
21811;DHT22;11067;48.788;9.208;2023-07-31T03:19:19;16.10;99.90
21811;DHT22;11067;48.788;9.208;2023-07-31T03:21:45;16.20;99.90
21811;DHT22;11067;48.788;9.208;2023-07-31T03:24:10;16.20;99.90
21811;DHT22;11067;48.788;9.208;2023-07-31T03:26:37;16.10;99.90
21811;DHT22;11067;48.788;9.208;2023-07-31T03:29:03;16.20;99.90
21811;DHT22;11067;48.788;9.208;2023-07-31T03:31:29;16.20;99.90
21811;DHT22;11067;48.788;9.208;2023-07-31T03:33:54;16.20;99.90
21811;DHT22;11067;48.788;9.208;2023-07-31T03:36:20;16.20;99.90
21811;DHT22;11067;48.788;9.208;2023-07-31T03:38:46;16.20;99.90
21811;DHT22;11067;48.788;9.208;2023-07-31T03:41:12;16.20;99.90
21811;DHT22;11067;48.788;9.208;2023-07-31T03:43:37;16.10;99.90
21811;DHT22;11067;48.788;9.208;2023-07-31T03:46:03;16.10;99.90
21811;DHT22;11067;48.788;9.208;2023-07-31T03:48:28;16.00;99.90
21811;DHT22;11067;48.788;9.208;2023-07-31T03:50:54;16.00;99.90
21811;DHT22;11067;48.788;9.208;2023-07-31T03:53:20;15.90;99.90
21811;DHT22;11067;48.788;9.208;2023-07-31T03:55:45;15.90;99.90
21811;DHT22;11067;48.788;9.208;2023-07-31T03:58:11;15.90;99.90
21811;DHT22;11067;48.788;9.208;2023-07-31T04:00:36;15.90;99.90
21811;DHT22;11067;48.788;9.208;2023-07-31T04:03:02;16.00;99.90
21811;DHT22;11067;48.788;9.208;2023-07-31T04:05:31;16.00;99.90
21811;DHT22;11067;48.788;9.208;2023-07-31T04:07:56;16.00;99.90
21811;DHT22;11067;48.788;9.208;2023-07-31T04:10:22;16.10;99.90
21811;DHT22;11067;48.788;9.208;2023-07-31T04:12:48;16.10;99.90
21811;DHT22;11067;48.788;9.208;2023-07-31T04:15:13;16.10;99.90
21811;DHT22;11067;48.788;9.208;2023-07-31T04:17:39;16.20;99.90
21811;DHT22;11067;48.788;9.208;2023-07-31T04:20:05;16.20;99.90
21811;DHT22;11067;48.788;9.208;2023-07-31T04:22:31;16.20;99.90
21811;DHT22;11067;48.788;9.208;2023-07-31T04:24:56;16.30;99.90
21811;DHT22;11067;48.788;9.208;2023-07-31T04:27:22;16.40;99.90
21811;DHT22;11067;48.788;9.208;2023-07-31T04:29:47;16.40;99.90
21811;DHT22;11067;48.788;9.208;2023-07-31T04:32:13;16.50;99.90
21811;DHT22;11067;48.788;9.208;2023-07-31T04:34:41;16.50;99.90
21811;DHT22;11067;48.788;9.208;2023-07-31T04:37:06;16.70;99.90
21811;DHT22;11067;48.788;9.208;2023-07-31T04:39:32;16.70;99.90
21811;DHT22;11067;48.788;9.208;2023-07-31T04:41:57;16.70;99.90
21811;DHT22;11067;48.788;9.208;2023-07-31T04:44:23;16.70;99.90
21811;DHT22;11067;48.788;9.208;2023-07-31T04:46:48;16.80;99.90
21811;DHT22;11067;48.788;9.208;2023-07-31T04:49:14;16.90;99.90
21811;DHT22;11067;48.788;9.208;2023-07-31T04:51:39;17.00;99.90
21811;DHT22;11067;48.788;9.208;2023-07-31T04:54:05;17.20;99.90
21811;DHT22;11067;48.788;9.208;2023-07-31T04:56:30;17.20;99.90
21811;DHT22;11067;48.788;9.208;2023-07-31T04:58:56;17.60;99.90
21811;DHT22;11067;48.788;9.208;2023-07-31T05:01:21;17.70;99.90
21811;DHT22;11067;48.788;9.208;2023-07-31T05:03:47;17.80;99.90
21811;DHT22;11067;48.788;9.208;2023-07-31T05:06:12;17.80;99.90
21811;DHT22;11067;48.788;9.208;2023-07-31T05:08:38;17.80;99.90
21811;DHT22;11067;48.788;9.208;2023-07-31T05:11:04;17.80;99.90
21811;DHT22;11067;48.788;9.208;2023-07-31T05:13:30;17.80;99.90
21811;DHT22;11067;48.788;9.208;2023-07-31T05:15:55;17.80;99.90
21811;DHT22;11067;48.788;9.208;2023-07-31T05:18:21;17.90;99.90
21811;DHT22;11067;48.788;9.208;2023-07-31T05:20:46;17.80;99.90
21811;DHT22;11067;48.788;9.208;2023-07-31T05:23:12;17.80;99.90
21811;DHT22;11067;48.788;9.208;2023-07-31T05:25:37;17.80;99.90
21811;DHT22;11067;48.788;9.208;2023-07-31T05:28:03;17.90;99.90
21811;DHT22;11067;48.788;9.208;2023-07-31T05:30:30;18.00;99.90
21811;DHT22;11067;48.788;9.208;2023-07-31T05:32:56;18.00;99.90
21811;DHT22;11067;48.788;9.208;2023-07-31T05:35:21;18.10;99.90
21811;DHT22;11067;48.788;9.208;2023-07-31T05:37:47;18.40;99.90
21811;DHT22;11067;48.788;9.208;2023-07-31T05:40:12;18.90;99.90
21811;DHT22;11067;48.788;9.208;2023-07-31T05:42:38;19.10;99.90
21811;DHT22;11067;48.788;9.208;2023-07-31T05:45:05;19.30;99.90
21811;DHT22;11067;48.788;9.208;2023-07-31T05:47:31;19.40;99.90
21811;DHT22;11067;48.788;9.208;2023-07-31T05:49:56;19.20;99.90
21811;DHT22;11067;48.788;9.208;2023-07-31T05:52:22;19.20;99.90
21811;DHT22;11067;48.788;9.208;2023-07-31T05:54:47;19.20;99.90
21811;DHT22;11067;48.788;9.208;2023-07-31T05:57:13;19.00;99.90
21811;DHT22;11067;48.788;9.208;2023-07-31T05:59:38;19.30;99.90
21811;DHT22;11067;48.788;9.208;2023-07-31T06:02:04;19.50;99.90
21811;DHT22;11067;48.788;9.208;2023-07-31T06:04:30;19.30;99.90
21811;DHT22;11067;48.788;9.208;2023-07-31T06:06:56;19.10;99.90
21811;DHT22;11067;48.788;9.208;2023-07-31T06:09:21;19.10;99.90
21811;DHT22;11067;48.788;9.208;2023-07-31T06:11:47;19.00;99.90
21811;DHT22;11067;48.788;9.208;2023-07-31T06:14:12;19.00;99.90
21811;DHT22;11067;48.788;9.208;2023-07-31T06:16:38;19.20;99.90
21811;DHT22;11067;48.788;9.208;2023-07-31T06:19:03;19.60;99.90
21811;DHT22;11067;48.788;9.208;2023-07-31T06:21:29;20.20;99.90
21811;DHT22;11067;48.788;9.208;2023-07-31T06:23:55;20.70;99.90
21811;DHT22;11067;48.788;9.208;2023-07-31T06:26:21;20.70;99.90
21811;DHT22;11067;48.788;9.208;2023-07-31T06:28:46;21.40;99.90
21811;DHT22;11067;48.788;9.208;2023-07-31T06:31:12;21.50;99.90
21811;DHT22;11067;48.788;9.208;2023-07-31T06:33:37;21.60;99.90
21811;DHT22;11067;48.788;9.208;2023-07-31T06:36:03;21.80;99.90
21811;DHT22;11067;48.788;9.208;2023-07-31T06:38:28;21.40;99.90
21811;DHT22;11067;48.788;9.208;2023-07-31T06:40:54;21.50;99.90
21811;DHT22;11067;48.788;9.208;2023-07-31T06:43:20;21.10;99.90
21811;DHT22;11067;48.788;9.208;2023-07-31T06:45:45;20.70;99.90
21811;DHT22;11067;48.788;9.208;2023-07-31T06:48:11;21.30;99.90
21811;DHT22;11067;48.788;9.208;2023-07-31T06:50:37;21.10;99.90
21811;DHT22;11067;48.788;9.208;2023-07-31T06:53:02;21.40;99.90
21811;DHT22;11067;48.788;9.208;2023-07-31T06:55:28;21.00;99.90
21811;DHT22;11067;48.788;9.208;2023-07-31T06:57:54;20.90;99.90
21811;DHT22;11067;48.788;9.208;2023-07-31T07:00:22;21.10;99.90
21811;DHT22;11067;48.788;9.208;2023-07-31T07:02:48;21.20;99.90
21811;DHT22;11067;48.788;9.208;2023-07-31T07:05:14;21.20;99.90
21811;DHT22;11067;48.788;9.208;2023-07-31T07:07:40;21.20;99.90
21811;DHT22;11067;48.788;9.208;2023-07-31T07:10:06;20.90;99.90
21811;DHT22;11067;48.788;9.208;2023-07-31T07:12:33;20.90;99.90
21811;DHT22;11067;48.788;9.208;2023-07-31T07:14:59;20.90;99.90
21811;DHT22;11067;48.788;9.208;2023-07-31T07:17:25;21.30;99.90
21811;DHT22;11067;48.788;9.208;2023-07-31T07:19:51;21.10;99.90
21811;DHT22;11067;48.788;9.208;2023-07-31T07:22:17;20.90;99.90
21811;DHT22;11067;48.788;9.208;2023-07-31T07:24:43;20.80;99.90
21811;DHT22;11067;48.788;9.208;2023-07-31T07:27:08;21.10;99.90
21811;DHT22;11067;48.788;9.208;2023-07-31T07:29:34;21.20;99.90
21811;DHT22;11067;48.788;9.208;2023-07-31T07:32:00;21.20;99.90
21811;DHT22;11067;48.788;9.208;2023-07-31T07:34:27;21.50;99.90
21811;DHT22;11067;48.788;9.208;2023-07-31T07:36:53;21.50;99.90
21811;DHT22;11067;48.788;9.208;2023-07-31T07:39:18;21.70;99.90
21811;DHT22;11067;48.788;9.208;2023-07-31T07:41:44;21.20;99.90
21811;DHT22;11067;48.788;9.208;2023-07-31T07:44:10;21.00;99.90
21811;DHT22;11067;48.788;9.208;2023-07-31T07:46:35;20.60;99.90
21811;DHT22;11067;48.788;9.208;2023-07-31T07:49:01;20.80;99.90
21811;DHT22;11067;48.788;9.208;2023-07-31T07:51:26;21.00;99.90
21811;DHT22;11067;48.788;9.208;2023-07-31T07:53:52;21.20;99.90
21811;DHT22;11067;48.788;9.208;2023-07-31T07:56:17;21.30;99.90
21811;DHT22;11067;48.788;9.208;2023-07-31T07:58:43;21.10;99.90
21811;DHT22;11067;48.788;9.208;2023-07-31T08:01:08;21.20;99.90
21811;DHT22;11067;48.788;9.208;2023-07-31T08:03:34;21.20;99.90
21811;DHT22;11067;48.788;9.208;2023-07-31T08:06:00;21.60;99.90
21811;DHT22;11067;48.788;9.208;2023-07-31T08:08:27;22.10;99.90
21811;DHT22;11067;48.788;9.208;2023-07-31T08:10:52;22.10;99.90
21811;DHT22;11067;48.788;9.208;2023-07-31T08:13:18;22.00;99.90
21811;DHT22;11067;48.788;9.208;2023-07-31T08:15:44;21.90;99.90
21811;DHT22;11067;48.788;9.208;2023-07-31T08:18:10;21.80;99.90
21811;DHT22;11067;48.788;9.208;2023-07-31T08:20:37;21.70;99.90
21811;DHT22;11067;48.788;9.208;2023-07-31T08:23:02;21.60;99.90
21811;DHT22;11067;48.788;9.208;2023-07-31T08:25:28;21.50;99.90
21811;DHT22;11067;48.788;9.208;2023-07-31T08:27:53;21.60;99.90
21811;DHT22;11067;48.788;9.208;2023-07-31T08:30:19;21.70;99.90
21811;DHT22;11067;48.788;9.208;2023-07-31T08:32:45;21.80;99.90
21811;DHT22;11067;48.788;9.208;2023-07-31T08:35:10;21.90;99.90
21811;DHT22;11067;48.788;9.208;2023-07-31T08:37:37;21.70;99.90
21811;DHT22;11067;48.788;9.208;2023-07-31T08:40:03;21.70;99.90
21811;DHT22;11067;48.788;9.208;2023-07-31T08:42:29;22.00;99.90
21811;DHT22;11067;48.788;9.208;2023-07-31T08:44:56;21.60;99.90
21811;DHT22;11067;48.788;9.208;2023-07-31T08:47:22;21.60;99.90
21811;DHT22;11067;48.788;9.208;2023-07-31T08:49:49;22.10;99.90
21811;DHT22;11067;48.788;9.208;2023-07-31T08:52:16;22.10;99.90
21811;DHT22;11067;48.788;9.208;2023-07-31T08:54:42;22.00;99.90
21811;DHT22;11067;48.788;9.208;2023-07-31T08:57:07;22.10;99.90
21811;DHT22;11067;48.788;9.208;2023-07-31T08:59:35;22.50;99.90
21811;DHT22;11067;48.788;9.208;2023-07-31T09:02:05;22.60;99.90
21811;DHT22;11067;48.788;9.208;2023-07-31T09:07:01;22.50;99.90
21811;DHT22;11067;48.788;9.208;2023-07-31T09:09:28;22.60;99.90
21811;DHT22;11067;48.788;9.208;2023-07-31T09:11:55;22.90;99.90
21811;DHT22;11067;48.788;9.208;2023-07-31T09:14:21;23.10;99.90
21811;DHT22;11067;48.788;9.208;2023-07-31T09:16:54;23.00;99.90
21811;DHT22;11067;48.788;9.208;2023-07-31T09:19:34;23.30;99.90
21811;DHT22;11067;48.788;9.208;2023-07-31T09:22:02;23.50;99.90
21811;DHT22;11067;48.788;9.208;2023-07-31T09:24:29;23.20;99.90
21811;DHT22;11067;48.788;9.208;2023-07-31T09:26:56;23.20;99.90
21811;DHT22;11067;48.788;9.208;2023-07-31T09:29:23;23.50;99.90
21811;DHT22;11067;48.788;9.208;2023-07-31T09:31:50;23.80;99.90
21811;DHT22;11067;48.788;9.208;2023-07-31T09:34:16;23.60;99.90
21811;DHT22;11067;48.788;9.208;2023-07-31T09:36:44;23.30;99.90
21811;DHT22;11067;48.788;9.208;2023-07-31T09:39:11;23.00;99.90
21811;DHT22;11067;48.788;9.208;2023-07-31T09:41:42;22.80;99.90
21811;DHT22;11067;48.788;9.208;2023-07-31T09:44:07;22.60;99.90
21811;DHT22;11067;48.788;9.208;2023-07-31T09:46:35;22.50;99.90
21811;DHT22;11067;48.788;9.208;2023-07-31T09:51:35;22.90;99.90
21811;DHT22;11067;48.788;9.208;2023-07-31T09:54:13;23.30;99.90
21811;DHT22;11067;48.788;9.208;2023-07-31T09:56:46;23.40;99.90
21811;DHT22;11067;48.788;9.208;2023-07-31T09:59:19;23.70;99.90
21811;DHT22;11067;48.788;9.208;2023-07-31T10:01:46;24.00;99.90
21811;DHT22;11067;48.788;9.208;2023-07-31T10:04:12;24.10;99.90
21811;DHT22;11067;48.788;9.208;2023-07-31T10:06:40;24.50;99.90
21811;DHT22;11067;48.788;9.208;2023-07-31T10:09:11;24.10;99.90
21811;DHT22;11067;48.788;9.208;2023-07-31T10:11:51;23.70;99.90
21811;DHT22;11067;48.788;9.208;2023-07-31T10:14:21;24.00;99.90
21811;DHT22;11067;48.788;9.208;2023-07-31T10:16:49;23.70;99.90
21811;DHT22;11067;48.788;9.208;2023-07-31T10:19:16;23.90;99.90
21811;DHT22;11067;48.788;9.208;2023-07-31T10:21:42;24.00;99.90
21811;DHT22;11067;48.788;9.208;2023-07-31T10:24:09;24.10;99.90
21811;DHT22;11067;48.788;9.208;2023-07-31T10:26:35;24.10;99.90
21811;DHT22;11067;48.788;9.208;2023-07-31T10:29:03;24.10;99.90
21811;DHT22;11067;48.788;9.208;2023-07-31T10:31:29;23.70;99.90
21811;DHT22;11067;48.788;9.208;2023-07-31T10:33:56;23.40;99.90
21811;DHT22;11067;48.788;9.208;2023-07-31T10:36:22;23.70;99.90
21811;DHT22;11067;48.788;9.208;2023-07-31T10:38:51;24.10;99.90
21811;DHT22;11067;48.788;9.208;2023-07-31T10:41:17;24.70;99.90
21811;DHT22;11067;48.788;9.208;2023-07-31T10:43:43;24.40;99.90
21811;DHT22;11067;48.788;9.208;2023-07-31T10:46:12;24.30;99.90
21811;DHT22;11067;48.788;9.208;2023-07-31T10:48:39;24.30;99.90
21811;DHT22;11067;48.788;9.208;2023-07-31T10:51:08;24.00;99.90
21811;DHT22;11067;48.788;9.208;2023-07-31T10:53:34;24.10;99.90
21811;DHT22;11067;48.788;9.208;2023-07-31T10:56:00;24.20;99.90
21811;DHT22;11067;48.788;9.208;2023-07-31T10:58:26;23.80;99.90
21811;DHT22;11067;48.788;9.208;2023-07-31T11:00:56;23.90;99.90
21811;DHT22;11067;48.788;9.208;2023-07-31T11:03:26;24.20;99.90
21811;DHT22;11067;48.788;9.208;2023-07-31T11:06:02;24.20;99.90
21811;DHT22;11067;48.788;9.208;2023-07-31T11:08:32;24.40;99.90
21811;DHT22;11067;48.788;9.208;2023-07-31T11:11:07;24.60;99.90
21811;DHT22;11067;48.788;9.208;2023-07-31T11:13:50;24.90;99.90
21811;DHT22;11067;48.788;9.208;2023-07-31T11:16:16;24.50;99.90
21811;DHT22;11067;48.788;9.208;2023-07-31T11:18:44;24.70;99.90
21811;DHT22;11067;48.788;9.208;2023-07-31T11:21:14;24.60;99.90
21811;DHT22;11067;48.788;9.208;2023-07-31T11:23:41;24.50;99.90
21811;DHT22;11067;48.788;9.208;2023-07-31T11:26:07;24.60;99.90
21811;DHT22;11067;48.788;9.208;2023-07-31T11:28:34;24.40;99.90
21811;DHT22;11067;48.788;9.208;2023-07-31T11:31:01;24.30;99.90
21811;DHT22;11067;48.788;9.208;2023-07-31T11:33:27;24.50;99.90
21811;DHT22;11067;48.788;9.208;2023-07-31T11:35:52;24.50;99.90
21811;DHT22;11067;48.788;9.208;2023-07-31T11:38:22;24.70;99.90
21811;DHT22;11067;48.788;9.208;2023-07-31T11:40:49;24.60;99.90
21811;DHT22;11067;48.788;9.208;2023-07-31T11:43:15;24.50;99.90
21811;DHT22;11067;48.788;9.208;2023-07-31T11:45:47;24.10;99.90
21811;DHT22;11067;48.788;9.208;2023-07-31T11:48:26;24.10;99.90
21811;DHT22;11067;48.788;9.208;2023-07-31T11:50:58;24.10;99.90
21811;DHT22;11067;48.788;9.208;2023-07-31T11:53:40;24.30;99.90
21811;DHT22;11067;48.788;9.208;2023-07-31T11:56:08;24.30;99.90
21811;DHT22;11067;48.788;9.208;2023-07-31T11:58:36;24.00;99.90
21811;DHT22;11067;48.788;9.208;2023-07-31T12:01:02;24.20;99.90
21811;DHT22;11067;48.788;9.208;2023-07-31T12:03:29;24.50;99.90
21811;DHT22;11067;48.788;9.208;2023-07-31T12:05:55;24.70;99.90
21811;DHT22;11067;48.788;9.208;2023-07-31T12:08:21;24.90;99.90
21811;DHT22;11067;48.788;9.208;2023-07-31T12:10:50;24.80;99.90
21811;DHT22;11067;48.788;9.208;2023-07-31T12:13:24;24.90;99.90
21811;DHT22;11067;48.788;9.208;2023-07-31T12:15:58;24.70;99.90
21811;DHT22;11067;48.788;9.208;2023-07-31T12:18:25;25.00;99.90
21811;DHT22;11067;48.788;9.208;2023-07-31T12:20:58;25.10;99.90
21811;DHT22;11067;48.788;9.208;2023-07-31T12:23:28;25.10;99.90
21811;DHT22;11067;48.788;9.208;2023-07-31T12:28:30;24.70;99.90
21811;DHT22;11067;48.788;9.208;2023-07-31T12:31:00;24.90;99.90
21811;DHT22;11067;48.788;9.208;2023-07-31T12:33:34;24.80;99.90
21811;DHT22;11067;48.788;9.208;2023-07-31T12:36:04;24.70;99.90
21811;DHT22;11067;48.788;9.208;2023-07-31T12:38:31;24.60;99.90
21811;DHT22;11067;48.788;9.208;2023-07-31T12:40:57;24.40;99.90
21811;DHT22;11067;48.788;9.208;2023-07-31T12:43:23;24.10;99.90
21811;DHT22;11067;48.788;9.208;2023-07-31T12:45:49;23.90;99.90
21811;DHT22;11067;48.788;9.208;2023-07-31T12:48:14;24.00;99.90
21811;DHT22;11067;48.788;9.208;2023-07-31T12:50:40;23.90;99.90
21811;DHT22;11067;48.788;9.208;2023-07-31T12:53:06;23.80;99.90
21811;DHT22;11067;48.788;9.208;2023-07-31T12:55:32;23.90;99.90
21811;DHT22;11067;48.788;9.208;2023-07-31T12:58:00;23.90;99.90
21811;DHT22;11067;48.788;9.208;2023-07-31T13:00:26;23.80;99.90
21811;DHT22;11067;48.788;9.208;2023-07-31T13:02:52;23.80;99.90
21811;DHT22;11067;48.788;9.208;2023-07-31T13:05:17;24.00;99.90
21811;DHT22;11067;48.788;9.208;2023-07-31T13:07:45;24.00;99.90
21811;DHT22;11067;48.788;9.208;2023-07-31T13:10:10;24.20;99.90
21811;DHT22;11067;48.788;9.208;2023-07-31T13:12:36;24.00;99.90
21811;DHT22;11067;48.788;9.208;2023-07-31T13:15:02;23.60;99.90
21811;DHT22;11067;48.788;9.208;2023-07-31T13:17:28;23.40;99.90
21811;DHT22;11067;48.788;9.208;2023-07-31T13:19:53;23.60;99.90
21811;DHT22;11067;48.788;9.208;2023-07-31T13:22:19;23.50;99.90
21811;DHT22;11067;48.788;9.208;2023-07-31T13:24:44;23.70;99.90
21811;DHT22;11067;48.788;9.208;2023-07-31T13:27:10;23.80;99.90
21811;DHT22;11067;48.788;9.208;2023-07-31T13:29:35;23.90;99.90
21811;DHT22;11067;48.788;9.208;2023-07-31T13:32:01;24.00;99.90
21811;DHT22;11067;48.788;9.208;2023-07-31T13:34:27;24.10;99.90
21811;DHT22;11067;48.788;9.208;2023-07-31T13:36:54;24.00;99.90
21811;DHT22;11067;48.788;9.208;2023-07-31T13:39:20;24.00;99.90
21811;DHT22;11067;48.788;9.208;2023-07-31T13:41:46;24.30;99.90
21811;DHT22;11067;48.788;9.208;2023-07-31T13:44:11;24.40;99.90
21811;DHT22;11067;48.788;9.208;2023-07-31T13:46:37;24.70;99.90
21811;DHT22;11067;48.788;9.208;2023-07-31T13:49:02;24.20;99.90
21811;DHT22;11067;48.788;9.208;2023-07-31T13:51:28;24.50;99.90
21811;DHT22;11067;48.788;9.208;2023-07-31T13:53:53;25.00;99.90
21811;DHT22;11067;48.788;9.208;2023-07-31T13:56:19;25.00;99.90
21811;DHT22;11067;48.788;9.208;2023-07-31T13:58:44;25.20;99.90
21811;DHT22;11067;48.788;9.208;2023-07-31T14:01:10;24.90;99.90
21811;DHT22;11067;48.788;9.208;2023-07-31T14:03:36;25.00;99.90
21811;DHT22;11067;48.788;9.208;2023-07-31T14:06:01;24.90;99.90
21811;DHT22;11067;48.788;9.208;2023-07-31T14:08:27;24.90;99.90
21811;DHT22;11067;48.788;9.208;2023-07-31T14:10:53;24.80;99.90
21811;DHT22;11067;48.788;9.208;2023-07-31T14:13:18;24.90;99.90
21811;DHT22;11067;48.788;9.208;2023-07-31T14:15:44;25.10;99.90
21811;DHT22;11067;48.788;9.208;2023-07-31T14:18:10;24.90;99.90
21811;DHT22;11067;48.788;9.208;2023-07-31T14:20:35;25.00;99.90
21811;DHT22;11067;48.788;9.208;2023-07-31T14:23:02;25.00;99.90
21811;DHT22;11067;48.788;9.208;2023-07-31T14:25:28;24.80;99.90
21811;DHT22;11067;48.788;9.208;2023-07-31T14:27:53;25.00;99.90
21811;DHT22;11067;48.788;9.208;2023-07-31T14:30:19;25.10;99.90
21811;DHT22;11067;48.788;9.208;2023-07-31T14:32:45;24.80;99.90
21811;DHT22;11067;48.788;9.208;2023-07-31T14:35:11;24.90;99.90
21811;DHT22;11067;48.788;9.208;2023-07-31T14:37:41;25.10;99.90
21811;DHT22;11067;48.788;9.208;2023-07-31T14:40:08;25.20;99.90
21811;DHT22;11067;48.788;9.208;2023-07-31T14:42:34;25.00;99.90
21811;DHT22;11067;48.788;9.208;2023-07-31T14:45:00;24.90;99.90
21811;DHT22;11067;48.788;9.208;2023-07-31T14:47:26;24.90;99.90
21811;DHT22;11067;48.788;9.208;2023-07-31T14:49:51;24.80;99.90
21811;DHT22;11067;48.788;9.208;2023-07-31T14:52:17;25.10;99.90
21811;DHT22;11067;48.788;9.208;2023-07-31T14:54:42;25.10;99.90
21811;DHT22;11067;48.788;9.208;2023-07-31T14:57:08;25.30;99.90
21811;DHT22;11067;48.788;9.208;2023-07-31T14:59:33;25.20;99.90
21811;DHT22;11067;48.788;9.208;2023-07-31T15:01:59;25.20;99.90
21811;DHT22;11067;48.788;9.208;2023-07-31T15:04:25;25.50;99.90
21811;DHT22;11067;48.788;9.208;2023-07-31T15:06:51;25.80;99.90
21811;DHT22;11067;48.788;9.208;2023-07-31T15:09:17;25.60;99.90
21811;DHT22;11067;48.788;9.208;2023-07-31T15:11:43;25.60;99.90
21811;DHT22;11067;48.788;9.208;2023-07-31T15:14:08;25.60;99.90
21811;DHT22;11067;48.788;9.208;2023-07-31T15:16:34;25.70;99.90
21811;DHT22;11067;48.788;9.208;2023-07-31T15:18:59;26.10;99.90
21811;DHT22;11067;48.788;9.208;2023-07-31T15:21:25;26.10;99.90
21811;DHT22;11067;48.788;9.208;2023-07-31T15:23:51;25.90;99.90
21811;DHT22;11067;48.788;9.208;2023-07-31T15:26:16;26.10;99.90
21811;DHT22;11067;48.788;9.208;2023-07-31T15:28:46;25.90;99.90
21811;DHT22;11067;48.788;9.208;2023-07-31T15:31:11;26.10;99.90
21811;DHT22;11067;48.788;9.208;2023-07-31T15:33:37;25.70;99.90
21811;DHT22;11067;48.788;9.208;2023-07-31T15:36:02;25.80;99.90